sensor_id;sensor_type;location;lat;lon;timestamp;temperature;humidity
23769;DHT22;12064;50.890;5.424;2023-03-05T00:03:13;20.00;66.50
23769;DHT22;12064;50.890;5.424;2023-03-05T00:12:08;20.10;66.40
23769;DHT22;12064;50.890;5.424;2023-03-05T00:21:03;20.60;64.90
23769;DHT22;12064;50.890;5.424;2023-03-05T00:29:53;21.00;63.60
23769;DHT22;12064;50.890;5.424;2023-03-05T00:38:47;21.20;63.10
23769;DHT22;12064;50.890;5.424;2023-03-05T00:47:40;21.20;62.60
23769;DHT22;12064;50.890;5.424;2023-03-05T00:56:31;21.10;62.50
23769;DHT22;12064;50.890;5.424;2023-03-05T01:05:21;21.20;62.20
23769;DHT22;12064;50.890;5.424;2023-03-05T01:14:12;21.20;62.30
23769;DHT22;12064;50.890;5.424;2023-03-05T01:23:03;21.10;62.40
23769;DHT22;12064;50.890;5.424;2023-03-05T01:31:57;20.90;62.80
23769;DHT22;12064;50.890;5.424;2023-03-05T01:40:47;20.30;64.30
23769;DHT22;12064;50.890;5.424;2023-03-05T01:49:39;19.90;66.10
23769;DHT22;12064;50.890;5.424;2023-03-05T01:58:31;20.10;65.50
23769;DHT22;12064;50.890;5.424;2023-03-05T02:07:21;20.60;64.10
23769;DHT22;12064;50.890;5.424;2023-03-05T02:16:12;20.90;63.00
23769;DHT22;12064;50.890;5.424;2023-03-05T02:25:22;20.80;62.90
23769;DHT22;12064;50.890;5.424;2023-03-05T02:34:13;20.90;62.80
23769;DHT22;12064;50.890;5.424;2023-03-05T02:43:04;21.00;62.60
23769;DHT22;12064;50.890;5.424;2023-03-05T02:51:55;20.90;62.70
23769;DHT22;12064;50.890;5.424;2023-03-05T03:00:46;20.90;62.40
23769;DHT22;12064;50.890;5.424;2023-03-05T03:09:37;20.00;65.20
23769;DHT22;12064;50.890;5.424;2023-03-05T03:18:28;19.70;66.20
23769;DHT22;12064;50.890;5.424;2023-03-05T03:27:20;19.70;66.00
23769;DHT22;12064;50.890;5.424;2023-03-05T03:36:14;20.10;65.10
23769;DHT22;12064;50.890;5.424;2023-03-05T03:45:05;20.60;63.70
23769;DHT22;12064;50.890;5.424;2023-03-05T03:53:56;20.70;63.20
23769;DHT22;12064;50.890;5.424;2023-03-05T04:02:47;20.90;62.60
23769;DHT22;12064;50.890;5.424;2023-03-05T04:11:38;21.00;62.40
23769;DHT22;12064;50.890;5.424;2023-03-05T04:20:29;20.90;62.30
23769;DHT22;12064;50.890;5.424;2023-03-05T04:29:20;20.60;62.90
23769;DHT22;12064;50.890;5.424;2023-03-05T04:38:11;19.90;65.50
23769;DHT22;12064;50.890;5.424;2023-03-05T04:47:03;19.50;66.50
23769;DHT22;12064;50.890;5.424;2023-03-05T04:55:54;19.40;67.00
23769;DHT22;12064;50.890;5.424;2023-03-05T05:04:54;19.90;66.30
23769;DHT22;12064;50.890;5.424;2023-03-05T05:13:47;20.20;65.40
23769;DHT22;12064;50.890;5.424;2023-03-05T05:22:43;20.30;65.20
23769;DHT22;12064;50.890;5.424;2023-03-05T05:31:38;20.20;65.50
23769;DHT22;12064;50.890;5.424;2023-03-05T05:40:28;20.20;65.80
23769;DHT22;12064;50.890;5.424;2023-03-05T05:49:19;20.50;65.20
23769;DHT22;12064;50.890;5.424;2023-03-05T05:58:15;20.50;65.10
23769;DHT22;12064;50.890;5.424;2023-03-05T06:07:06;20.40;65.50
23769;DHT22;12064;50.890;5.424;2023-03-05T06:15:58;20.20;65.80
23769;DHT22;12064;50.890;5.424;2023-03-05T06:24:49;20.10;66.30
23769;DHT22;12064;50.890;5.424;2023-03-05T06:33:40;20.00;66.70
23769;DHT22;12064;50.890;5.424;2023-03-05T06:42:30;19.80;67.10
23769;DHT22;12064;50.890;5.424;2023-03-05T06:51:33;19.70;67.20
23769;DHT22;12064;50.890;5.424;2023-03-05T07:00:24;20.20;66.10
23769;DHT22;12064;50.890;5.424;2023-03-05T07:09:20;20.30;65.80
23769;DHT22;12064;50.890;5.424;2023-03-05T07:18:12;20.10;66.10
23769;DHT22;12064;50.890;5.424;2023-03-05T07:27:03;20.00;66.50
23769;DHT22;12064;50.890;5.424;2023-03-05T07:35:55;19.90;66.80
23769;DHT22;12064;50.890;5.424;2023-03-05T07:44:47;19.90;66.80
23769;DHT22;12064;50.890;5.424;2023-03-05T07:53:37;20.10;66.30
23769;DHT22;12064;50.890;5.424;2023-03-05T08:02:30;20.10;66.40
23769;DHT22;12064;50.890;5.424;2023-03-05T08:11:20;20.00;66.60
23769;DHT22;12064;50.890;5.424;2023-03-05T08:20:12;19.80;66.80
23769;DHT22;12064;50.890;5.424;2023-03-05T08:29:03;19.90;67.00
23769;DHT22;12064;50.890;5.424;2023-03-05T08:37:57;20.10;66.50
23769;DHT22;12064;50.890;5.424;2023-03-05T08:46:50;20.00;66.40
23769;DHT22;12064;50.890;5.424;2023-03-05T08:55:43;20.00;66.70
23769;DHT22;12064;50.890;5.424;2023-03-05T09:04:37;19.90;67.00
23769;DHT22;12064;50.890;5.424;2023-03-05T09:13:27;19.80;67.00
23769;DHT22;12064;50.890;5.424;2023-03-05T09:22:18;20.00;66.50
23769;DHT22;12064;50.890;5.424;2023-03-05T09:31:09;20.30;66.10
23769;DHT22;12064;50.890;5.424;2023-03-05T09:40:00;21.10;63.00
23769;DHT22;12064;50.890;5.424;2023-03-05T09:48:53;20.00;66.30
23769;DHT22;12064;50.890;5.424;2023-03-05T09:57:51;19.90;66.70
23769;DHT22;12064;50.890;5.424;2023-03-05T10:06:55;20.10;66.30
23769;DHT22;12064;50.890;5.424;2023-03-05T10:16:03;20.10;66.50
23769;DHT22;12064;50.890;5.424;2023-03-05T10:25:22;20.00;66.70
23769;DHT22;12064;50.890;5.424;2023-03-05T10:52:38;20.00;66.60
23769;DHT22;12064;50.890;5.424;2023-03-05T11:01:29;20.10;66.60
23769;DHT22;12064;50.890;5.424;2023-03-05T11:10:21;20.00;66.60
23769;DHT22;12064;50.890;5.424;2023-03-05T11:19:28;19.90;66.80
23769;DHT22;12064;50.890;5.424;2023-03-05T11:28:25;19.80;67.00
23769;DHT22;12064;50.890;5.424;2023-03-05T11:37:31;20.10;66.40
23769;DHT22;12064;50.890;5.424;2023-03-05T11:46:22;20.10;66.50
23769;DHT22;12064;50.890;5.424;2023-03-05T11:55:16;20.00;66.60
23769;DHT22;12064;50.890;5.424;2023-03-05T12:04:16;19.90;66.80
23769;DHT22;12064;50.890;5.424;2023-03-05T12:22:45;19.80;67.10
23769;DHT22;12064;50.890;5.424;2023-03-05T12:31:37;20.00;66.60
23769;DHT22;12064;50.890;5.424;2023-03-05T12:40:33;20.00;66.60
23769;DHT22;12064;50.890;5.424;2023-03-05T13:07:30;19.80;67.10
23769;DHT22;12064;50.890;5.424;2023-03-05T13:16:28;20.00;66.70
23769;DHT22;12064;50.890;5.424;2023-03-05T13:25:20;20.00;66.40
23769;DHT22;12064;50.890;5.424;2023-03-05T13:34:28;19.90;66.50
23769;DHT22;12064;50.890;5.424;2023-03-05T13:43:19;19.80;66.90
23769;DHT22;12064;50.890;5.424;2023-03-05T13:52:11;19.80;66.90
23769;DHT22;12064;50.890;5.424;2023-03-05T14:01:27;19.90;66.60
23769;DHT22;12064;50.890;5.424;2023-03-05T14:10:36;20.10;66.30
23769;DHT22;12064;50.890;5.424;2023-03-05T14:19:36;20.00;66.40
23769;DHT22;12064;50.890;5.424;2023-03-05T14:28:32;19.90;66.70
23769;DHT22;12064;50.890;5.424;2023-03-05T14:37:35;19.80;66.90
23769;DHT22;12064;50.890;5.424;2023-03-05T14:46:30;19.90;66.80
23769;DHT22;12064;50.890;5.424;2023-03-05T14:55:23;20.00;66.40
23769;DHT22;12064;50.890;5.424;2023-03-05T15:04:14;19.90;66.40
23769;DHT22;12064;50.890;5.424;2023-03-05T15:13:08;19.90;66.50
23769;DHT22;12064;50.890;5.424;2023-03-05T15:21:59;19.80;66.80
23769;DHT22;12064;50.890;5.424;2023-03-05T15:30:49;19.80;66.80
23769;DHT22;12064;50.890;5.424;2023-03-05T15:39:40;20.00;66.30
23769;DHT22;12064;50.890;5.424;2023-03-05T15:48:31;20.00;66.20
23769;DHT22;12064;50.890;5.424;2023-03-05T15:57:24;19.90;66.40
23769;DHT22;12064;50.890;5.424;2023-03-05T16:06:16;19.80;66.70
23769;DHT22;12064;50.890;5.424;2023-03-05T16:15:15;19.80;66.70
23769;DHT22;12064;50.890;5.424;2023-03-05T16:24:07;20.10;66.20
23769;DHT22;12064;50.890;5.424;2023-03-05T16:33:00;20.00;66.20
23769;DHT22;12064;50.890;5.424;2023-03-05T16:41:51;19.90;66.60
23769;DHT22;12064;50.890;5.424;2023-03-05T16:50:42;19.80;66.70
23769;DHT22;12064;50.890;5.424;2023-03-05T16:59:35;19.90;67.00
23769;DHT22;12064;50.890;5.424;2023-03-05T17:08:26;20.10;66.30
23769;DHT22;12064;50.890;5.424;2023-03-05T17:17:17;20.10;66.30
23769;DHT22;12064;50.890;5.424;2023-03-05T17:26:13;20.00;66.60
23769;DHT22;12064;50.890;5.424;2023-03-05T17:35:04;19.90;66.80
23769;DHT22;12064;50.890;5.424;2023-03-05T17:43:55;19.80;67.00
23769;DHT22;12064;50.890;5.424;2023-03-05T17:52:46;20.10;66.80
23769;DHT22;12064;50.890;5.424;2023-03-05T18:01:39;20.20;66.80
23769;DHT22;12064;50.890;5.424;2023-03-05T18:10:31;20.20;66.70
23769;DHT22;12064;50.890;5.424;2023-03-05T18:19:22;20.20;66.60
23769;DHT22;12064;50.890;5.424;2023-03-05T18:28:14;20.30;66.30
23769;DHT22;12064;50.890;5.424;2023-03-05T18:37:05;20.30;66.20
23769;DHT22;12064;50.890;5.424;2023-03-05T18:45:56;20.40;65.80
23769;DHT22;12064;50.890;5.424;2023-03-05T18:54:48;20.50;65.80
23769;DHT22;12064;50.890;5.424;2023-03-05T19:03:39;20.60;65.40
23769;DHT22;12064;50.890;5.424;2023-03-05T19:12:30;20.50;65.60
23769;DHT22;12064;50.890;5.424;2023-03-05T19:21:25;20.40;65.80
23769;DHT22;12064;50.890;5.424;2023-03-05T19:30:19;20.40;66.00
23769;DHT22;12064;50.890;5.424;2023-03-05T19:39:09;20.40;66.00
23769;DHT22;12064;50.890;5.424;2023-03-05T19:48:03;20.40;65.80
23769;DHT22;12064;50.890;5.424;2023-03-05T19:56:54;20.40;66.00
23769;DHT22;12064;50.890;5.424;2023-03-05T20:05:45;20.50;66.70
23769;DHT22;12064;50.890;5.424;2023-03-05T20:14:36;21.10;66.60
23769;DHT22;12064;50.890;5.424;2023-03-05T20:23:31;22.20;63.90
23769;DHT22;12064;50.890;5.424;2023-03-05T20:32:22;22.80;62.00
23769;DHT22;12064;50.890;5.424;2023-03-05T20:41:17;22.90;62.00
23769;DHT22;12064;50.890;5.424;2023-03-05T20:50:11;22.90;61.80
23769;DHT22;12064;50.890;5.424;2023-03-05T20:59:04;23.10;60.80
23769;DHT22;12064;50.890;5.424;2023-03-05T21:07:57;23.00;61.50
23769;DHT22;12064;50.890;5.424;2023-03-05T21:16:47;23.00;61.50
23769;DHT22;12064;50.890;5.424;2023-03-05T21:25:39;23.40;60.80
23769;DHT22;12064;50.890;5.424;2023-03-05T21:34:30;23.10;61.80
23769;DHT22;12064;50.890;5.424;2023-03-05T21:43:23;23.40;61.20
23769;DHT22;12064;50.890;5.424;2023-03-05T21:52:14;23.30;61.30
23769;DHT22;12064;50.890;5.424;2023-03-05T22:01:05;23.00;61.30
23769;DHT22;12064;50.890;5.424;2023-03-05T22:09:56;22.80;61.80
23769;DHT22;12064;50.890;5.424;2023-03-05T22:18:54;22.60;61.70
23769;DHT22;12064;50.890;5.424;2023-03-05T22:27:45;22.40;61.90
23769;DHT22;12064;50.890;5.424;2023-03-05T22:36:38;22.30;62.00
23769;DHT22;12064;50.890;5.424;2023-03-05T22:45:29;22.20;62.10
23769;DHT22;12064;50.890;5.424;2023-03-05T22:54:19;22.10;62.40
23769;DHT22;12064;50.890;5.424;2023-03-05T23:03:13;22.00;62.40
23769;DHT22;12064;50.890;5.424;2023-03-05T23:12:04;21.80;62.50
23769;DHT22;12064;50.890;5.424;2023-03-05T23:20:55;21.40;63.50
23769;DHT22;12064;50.890;5.424;2023-03-05T23:30:20;20.50;66.00
23769;DHT22;12064;50.890;5.424;2023-03-05T23:39:11;20.00;67.50
23769;DHT22;12064;50.890;5.424;2023-03-05T23:48:01;19.90;68.10
23769;DHT22;12064;50.890;5.424;2023-03-05T23:56:52;20.50;66.20
